createdAt,value
2022-09-23T00:03:17.984Z,4.06
2022-09-23T00:08:21.774Z,4.07
2022-09-23T00:13:26.784Z,4.03
2022-09-23T00:18:30.372Z,4.07
2022-09-23T00:23:34.687Z,4.10
2022-09-23T00:28:38.716Z,4.01
2022-09-23T00:33:42.443Z,3.99
2022-09-23T00:38:45.731Z,3.94
2022-09-23T00:43:50.261Z,3.85
2022-09-23T00:48:59.325Z,3.78
2022-09-23T00:54:03.451Z,3.70
2022-09-23T00:59:08.286Z,3.65
2022-09-23T01:04:11.866Z,3.63
2022-09-23T01:09:15.988Z,3.64
2022-09-23T01:14:43.571Z,3.70
2022-09-23T01:20:21.933Z,3.81
2022-09-23T01:25:42.315Z,3.75
2022-09-23T01:30:55.521Z,3.74
2022-09-23T01:36:20.137Z,3.79
2022-09-23T01:41:42.935Z,3.70
2022-09-23T01:47:14.548Z,3.54
2022-09-23T01:52:38.692Z,3.44
2022-09-23T01:57:49.145Z,3.38
2022-09-23T02:02:56.049Z,3.35
2022-09-23T02:08:03.775Z,3.22
2022-09-23T02:13:16.005Z,3.19
2022-09-23T02:18:27.371Z,3.11
2022-09-23T02:23:36.219Z,3.05
2022-09-23T02:28:48.910Z,2.99
2022-09-23T02:33:57.572Z,3.02
2022-09-23T02:39:04.360Z,3.05
2022-09-23T02:44:17.159Z,3.02
2022-09-23T02:49:23.996Z,2.94
2022-09-23T02:54:29.449Z,2.87
2022-09-23T02:59:33.459Z,2.87
2022-09-23T03:04:58.880Z,2.90
2022-09-23T03:10:19.835Z,2.85
2022-09-23T03:15:32.372Z,2.80
2022-09-23T03:20:45.480Z,2.81
2022-09-23T03:25:50.158Z,2.81
2022-09-23T03:30:54.070Z,2.80
2022-09-23T03:36:23.570Z,2.76
2022-09-23T03:41:32.484Z,2.78
2022-09-23T03:46:49.956Z,2.80
2022-09-23T03:52:00.524Z,2.84
2022-09-23T03:57:04.247Z,2.97
2022-09-23T04:02:08.456Z,2.84
2022-09-23T04:07:12.591Z,2.77
2022-09-23T04:12:17.506Z,2.82
2022-09-23T04:17:21.025Z,3.01
2022-09-23T04:22:25.349Z,2.98
2022-09-23T04:27:28.819Z,2.93
2022-09-23T04:32:32.225Z,2.99
2022-09-23T04:37:35.450Z,2.99
2022-09-23T04:42:38.863Z,2.87
2022-09-23T04:47:44.700Z,2.79
2022-09-23T04:52:48.139Z,2.82
2022-09-23T04:57:51.633Z,2.83
2022-09-23T05:02:55.179Z,2.84
2022-09-23T05:08:00.106Z,2.84
2022-09-23T05:13:03.630Z,2.88
2022-09-23T05:18:07.170Z,2.94
2022-09-23T05:23:12.808Z,3.03
2022-09-23T05:28:20.829Z,3.09
2022-09-23T05:33:24.443Z,3.19
2022-09-23T05:38:30.630Z,3.34
2022-09-23T05:43:35.570Z,3.51
2022-09-23T05:48:40.128Z,3.76
2022-09-23T05:53:47.076Z,3.98
2022-09-23T05:58:54.802Z,4.22
2022-09-23T06:04:00.188Z,4.47
2022-09-23T06:09:05.685Z,4.74
2022-09-23T06:14:12.621Z,4.94
2022-09-23T06:19:17.988Z,5.18
2022-09-23T06:24:27.211Z,5.36
2022-09-23T06:29:33.938Z,5.53
2022-09-23T06:34:48.659Z,5.77
2022-09-23T06:39:56.654Z,6.10
2022-09-23T06:45:00.444Z,6.35
2022-09-23T06:50:05.047Z,6.56
2022-09-23T06:55:10.408Z,6.82
2022-09-23T07:00:14.574Z,7.08
2022-09-23T07:05:18.192Z,7.34
2022-09-23T07:10:22.411Z,7.62
2022-09-23T07:15:26.050Z,7.82
2022-09-23T07:20:30.414Z,7.97
2022-09-23T07:25:37.403Z,8.27
2022-09-23T07:30:50.585Z,8.45
2022-09-23T07:35:58.265Z,8.74
2022-09-23T07:41:05.006Z,9.04
2022-09-23T07:46:12.450Z,9.38
2022-09-23T07:51:21.723Z,9.67
2022-09-23T07:56:29.998Z,9.87
2022-09-23T08:01:37.584Z,10.17
2022-09-23T08:06:50.918Z,10.49
2022-09-23T08:11:55.063Z,10.77
2022-09-23T08:17:06.646Z,10.98
2022-09-23T08:22:10.691Z,11.22
2022-09-23T08:27:16.145Z,11.46
2022-09-23T08:32:19.845Z,11.70
2022-09-23T08:37:23.452Z,11.94
2022-09-23T08:42:32.782Z,12.20
2022-09-23T08:47:47.908Z,12.37
2022-09-23T08:52:55.505Z,12.57
2022-09-23T08:58:23.948Z,12.70
2022-09-23T09:03:31.846Z,12.92
2022-09-23T09:08:40.109Z,13.15
2022-09-23T09:13:56.461Z,13.35
2022-09-23T09:19:01.636Z,13.33
2022-09-23T09:24:15.243Z,13.37
2022-09-23T09:29:41.781Z,13.67
2022-09-23T09:34:56.530Z,13.87
2022-09-23T09:40:00.348Z,13.91
2022-09-23T09:45:11.382Z,14.14
2022-09-23T09:50:21.836Z,14.30
2022-09-23T09:55:29.095Z,14.45
2022-09-23T10:00:44.371Z,14.52
2022-09-23T10:05:50.564Z,14.90
2022-09-23T10:10:59.875Z,15.20
2022-09-23T10:16:04.813Z,15.67
2022-09-23T10:21:17.092Z,15.83
2022-09-23T10:26:35.650Z,15.86
2022-09-23T10:31:39.076Z,16.40
2022-09-23T10:36:56.447Z,16.36
2022-09-23T10:42:28.714Z,16.35
2022-09-23T10:48:10.978Z,16.93
2022-09-23T10:53:42.434Z,16.77
2022-09-23T10:58:51.894Z,16.56
2022-09-23T11:04:22.403Z,16.37
2022-09-23T11:09:47.600Z,16.00
2022-09-23T11:15:03.281Z,15.75
2022-09-23T11:20:18.864Z,16.26
2022-09-23T11:25:31.464Z,16.72
2022-09-23T11:31:09.498Z,16.82
2022-09-23T11:36:25.553Z,16.89
2022-09-23T11:41:31.959Z,16.88
2022-09-23T11:46:47.958Z,16.81
2022-09-23T11:52:23.357Z,16.57
2022-09-23T11:57:42.709Z,16.42
2022-09-23T12:03:18.636Z,16.22
2022-09-23T12:08:34.905Z,16.42
2022-09-23T12:13:47.458Z,16.97
2022-09-23T12:19:17.688Z,17.11
2022-09-23T12:24:39.482Z,17.17
2022-09-23T12:29:42.887Z,16.99
2022-09-23T12:34:50.181Z,16.30
2022-09-23T12:39:54.661Z,15.99
2022-09-23T12:45:35.077Z,16.04
2022-09-23T12:51:06.936Z,16.35
2022-09-23T12:56:19.006Z,16.58
2022-09-23T13:01:24.929Z,16.52
2022-09-23T13:06:38.921Z,16.63
2022-09-23T13:11:44.714Z,16.61
2022-09-23T13:16:49.876Z,16.32
2022-09-23T13:22:09.809Z,16.43
2022-09-23T13:27:33.623Z,16.60
2022-09-23T13:32:45.541Z,16.80
2022-09-23T13:37:50.162Z,16.77
2022-09-23T13:43:03.980Z,16.66
2022-09-23T13:48:22.185Z,16.54
2022-09-23T13:53:35.571Z,16.63
2022-09-23T13:58:39.231Z,16.46
2022-09-23T14:03:45.100Z,16.30
2022-09-23T14:08:52.799Z,16.60
2022-09-23T14:13:57.912Z,16.82
2022-09-23T14:19:01.462Z,17.06
2022-09-23T14:24:18.617Z,17.23
2022-09-23T14:29:26.438Z,17.44
2022-09-23T14:34:42.131Z,17.23
2022-09-23T14:39:45.629Z,17.08
2022-09-23T14:44:50.829Z,17.15
2022-09-23T14:50:13.005Z,17.11
2022-09-23T14:55:18.217Z,17.01
2022-09-23T15:00:21.973Z,16.67
2022-09-23T15:05:44.085Z,16.46
2022-09-23T15:10:49.043Z,16.18
2022-09-23T15:15:56.026Z,15.94
2022-09-23T15:21:09.044Z,15.68
2022-09-23T15:26:21.026Z,15.45
2022-09-23T15:31:28.219Z,15.16
2022-09-23T15:36:35.303Z,14.88
2022-09-23T15:41:40.250Z,14.64
2022-09-23T15:46:48.949Z,14.37
2022-09-23T15:52:02.807Z,14.09
2022-09-23T15:57:16.916Z,13.81
2022-09-23T16:02:27.603Z,13.52
2022-09-23T16:07:31.469Z,13.27
2022-09-23T16:12:37.961Z,12.96
2022-09-23T16:18:08.513Z,12.71
2022-09-23T16:23:35.283Z,12.50
2022-09-23T16:28:43.319Z,12.32
2022-09-23T16:34:00.655Z,12.16
2022-09-23T16:39:15.262Z,12.00
2022-09-23T16:44:44.817Z,11.80
2022-09-23T16:50:44.528Z,11.48
2022-09-23T16:56:04.871Z,11.22
2022-09-23T17:01:41.701Z,11.03
2022-09-23T17:07:01.716Z,10.89
2022-09-23T17:12:35.864Z,10.74
2022-09-23T17:17:39.874Z,10.65
2022-09-23T17:22:49.109Z,10.57
2022-09-23T17:27:54.001Z,10.55
2022-09-23T17:32:57.860Z,10.58
2022-09-23T17:38:02.624Z,10.55
2022-09-23T17:43:14.987Z,10.51
2022-09-23T17:48:27.833Z,10.43
2022-09-23T17:53:45.871Z,10.26
2022-09-23T17:59:05.723Z,10.11
2022-09-23T18:04:18.196Z,9.92
2022-09-23T18:09:33.994Z,9.76
2022-09-23T18:20:03.553Z,9.35
2022-09-23T18:25:22.978Z,9.22
2022-09-23T18:30:41.636Z,9.13
2022-09-23T18:35:55.333Z,8.97
2022-09-23T18:41:07.905Z,8.83
2022-09-23T18:46:16.074Z,8.72
2022-09-23T18:51:36.390Z,8.67
2022-09-23T18:57:15.197Z,8.64
2022-09-23T19:02:40.954Z,8.58
2022-09-23T19:08:06.329Z,8.49
2022-09-23T19:18:59.386Z,8.31
2022-09-23T19:24:07.282Z,8.30
2022-09-23T19:29:19.840Z,8.28
2022-09-23T19:34:40.743Z,8.22
2022-09-23T19:39:53.669Z,8.10
2022-09-23T19:45:06.560Z,8.05
2022-09-23T19:50:39.309Z,7.98
2022-09-23T19:56:01.422Z,7.93
2022-09-23T20:07:12.442Z,7.85
2022-09-23T20:12:19.834Z,7.74
2022-09-23T20:17:30.132Z,7.66
2022-09-23T20:22:44.686Z,7.63
2022-09-23T20:28:04.928Z,7.60
2022-09-23T20:33:17.359Z,7.54
2022-09-23T20:38:28.532Z,7.49
2022-09-23T20:43:42.696Z,7.44
2022-09-23T20:48:57.271Z,7.42
2022-09-23T20:54:16.408Z,7.35
2022-09-23T20:59:22.097Z,7.27
2022-09-23T21:04:25.896Z,7.19
2022-09-23T21:09:36.029Z,7.16
2022-09-23T21:16:41.597Z,7.18
2022-09-23T21:21:02.209Z,7.17
2022-09-23T21:26:20.657Z,7.15
2022-09-23T21:31:33.968Z,7.10
2022-09-23T21:36:53.954Z,7.03
2022-09-23T21:42:10.834Z,6.95
2022-09-23T21:47:24.705Z,6.87
2022-09-23T21:52:56.225Z,6.75
2022-09-23T21:58:03.461Z,6.68
2022-09-23T22:03:13.861Z,6.65
2022-09-23T22:08:39.358Z,6.61
2022-09-23T22:14:04.440Z,6.61
2022-09-23T22:19:11.205Z,6.62
2022-09-23T22:24:15.458Z,6.64
2022-09-23T22:29:38.706Z,6.66
2022-09-23T22:34:52.588Z,6.65
2022-09-23T22:40:14.541Z,6.62
2022-09-23T22:45:18.665Z,6.62
2022-09-23T22:50:22.400Z,6.59
2022-09-23T22:55:26.330Z,6.59
2022-09-23T23:00:31.963Z,6.59
2022-09-23T23:05:42.792Z,6.55
2022-09-23T23:10:55.339Z,6.55
2022-09-23T23:16:04.586Z,6.53
2022-09-23T23:21:15.243Z,6.51
2022-09-23T23:26:28.180Z,6.46
2022-09-23T23:31:37.534Z,6.39
2022-09-23T23:36:50.870Z,6.33
2022-09-23T23:42:01.403Z,6.26
2022-09-23T23:47:09.738Z,6.17
2022-09-23T23:52:22.048Z,6.04
2022-09-23T23:57:27.569Z,5.90
